sensor_id;sensor_type;location;lat;lon;timestamp;temperature;humidity
77700;DHT22;66867;42.658;23.320;2023-07-31T00:00:00;23.4;68
77700;DHT22;66867;42.658;23.320;2023-07-31T00:01:00;23.4;68
77700;DHT22;66867;42.658;23.320;2023-07-31T00:02:00;23.4;68
77700;DHT22;66867;42.658;23.320;2023-07-31T00:03:00;23.4;69
77700;DHT22;66867;42.658;23.320;2023-07-31T00:04:00;23.4;69
77700;DHT22;66867;42.658;23.320;2023-07-31T00:05:00;23.4;69
77700;DHT22;66867;42.658;23.320;2023-07-31T00:06:00;23.4;69
77700;DHT22;66867;42.658;23.320;2023-07-31T00:07:00;23.4;70
77700;DHT22;66867;42.658;23.320;2023-07-31T00:08:00;23.5;69
77700;DHT22;66867;42.658;23.320;2023-07-31T00:09:00;23.4;70
77700;DHT22;66867;42.658;23.320;2023-07-31T00:10:00;23.4;70
77700;DHT22;66867;42.658;23.320;2023-07-31T00:11:00;23.3;69
77700;DHT22;66867;42.658;23.320;2023-07-31T00:12:00;23.3;70
77700;DHT22;66867;42.658;23.320;2023-07-31T00:13:00;23.3;70
77700;DHT22;66867;42.658;23.320;2023-07-31T00:14:00;23.2;70
77700;DHT22;66867;42.658;23.320;2023-07-31T00:15:00;23.2;70
77700;DHT22;66867;42.658;23.320;2023-07-31T00:16:00;23.3;70
77700;DHT22;66867;42.658;23.320;2023-07-31T00:17:00;23.2;70
77700;DHT22;66867;42.658;23.320;2023-07-31T00:18:00;23.2;70
77700;DHT22;66867;42.658;23.320;2023-07-31T00:19:00;23.2;71
77700;DHT22;66867;42.658;23.320;2023-07-31T00:20:00;23.2;71
77700;DHT22;66867;42.658;23.320;2023-07-31T00:21:00;23.2;71
77700;DHT22;66867;42.658;23.320;2023-07-31T00:22:00;23.2;70
77700;DHT22;66867;42.658;23.320;2023-07-31T00:23:00;23.2;70
77700;DHT22;66867;42.658;23.320;2023-07-31T00:24:00;23.2;70
77700;DHT22;66867;42.658;23.320;2023-07-31T00:25:00;23.3;70
77700;DHT22;66867;42.658;23.320;2023-07-31T00:26:00;23.2;71
77700;DHT22;66867;42.658;23.320;2023-07-31T00:27:00;23.2;71
77700;DHT22;66867;42.658;23.320;2023-07-31T00:28:00;23.1;71
77700;DHT22;66867;42.658;23.320;2023-07-31T00:29:00;23.1;72
77700;DHT22;66867;42.658;23.320;2023-07-31T00:30:00;23.1;72
77700;DHT22;66867;42.658;23.320;2023-07-31T00:31:00;23.1;72
77700;DHT22;66867;42.658;23.320;2023-07-31T00:32:00;23.1;73
77700;DHT22;66867;42.658;23.320;2023-07-31T00:33:00;23.0;72
77700;DHT22;66867;42.658;23.320;2023-07-31T00:34:00;23.1;73
77700;DHT22;66867;42.658;23.320;2023-07-31T00:35:00;23.1;73
77700;DHT22;66867;42.658;23.320;2023-07-31T00:36:00;23.1;73
77700;DHT22;66867;42.658;23.320;2023-07-31T00:37:00;23.0;74
77700;DHT22;66867;42.658;23.320;2023-07-31T00:38:00;23.0;74
77700;DHT22;66867;42.658;23.320;2023-07-31T00:39:00;23.1;74
77700;DHT22;66867;42.658;23.320;2023-07-31T00:40:00;23.1;75
77700;DHT22;66867;42.658;23.320;2023-07-31T00:41:00;23.0;74
77700;DHT22;66867;42.658;23.320;2023-07-31T00:42:00;23.1;75
77700;DHT22;66867;42.658;23.320;2023-07-31T00:43:00;23.1;74
77700;DHT22;66867;42.658;23.320;2023-07-31T00:44:00;23.1;74
77700;DHT22;66867;42.658;23.320;2023-07-31T00:45:00;23.0;74
77700;DHT22;66867;42.658;23.320;2023-07-31T00:46:00;23.0;74
77700;DHT22;66867;42.658;23.320;2023-07-31T00:47:00;23.0;74
77700;DHT22;66867;42.658;23.320;2023-07-31T00:48:00;23.0;74
77700;DHT22;66867;42.658;23.320;2023-07-31T00:49:00;22.9;74
77700;DHT22;66867;42.658;23.320;2023-07-31T00:50:00;22.9;74
77700;DHT22;66867;42.658;23.320;2023-07-31T00:51:00;22.9;74
77700;DHT22;66867;42.658;23.320;2023-07-31T00:52:00;22.9;75
77700;DHT22;66867;42.658;23.320;2023-07-31T00:53:00;22.9;74
77700;DHT22;66867;42.658;23.320;2023-07-31T00:54:00;22.8;74
77700;DHT22;66867;42.658;23.320;2023-07-31T00:55:00;22.8;75
77700;DHT22;66867;42.658;23.320;2023-07-31T00:56:00;22.8;75
77700;DHT22;66867;42.658;23.320;2023-07-31T00:57:00;22.7;75
77700;DHT22;66867;42.658;23.320;2023-07-31T00:58:00;22.7;75
77700;DHT22;66867;42.658;23.320;2023-07-31T00:59:00;22.7;75
77700;DHT22;66867;42.658;23.320;2023-07-31T01:00:00;22.7;75
77700;DHT22;66867;42.658;23.320;2023-07-31T01:01:00;22.7;74
77700;DHT22;66867;42.658;23.320;2023-07-31T01:02:00;22.7;74
77700;DHT22;66867;42.658;23.320;2023-07-31T01:03:00;22.6;75
77700;DHT22;66867;42.658;23.320;2023-07-31T01:04:00;22.6;75
77700;DHT22;66867;42.658;23.320;2023-07-31T01:05:01;22.6;75
77700;DHT22;66867;42.658;23.320;2023-07-31T01:06:23;22.6;75
77700;DHT22;66867;42.658;23.320;2023-07-31T01:07:02;22.6;75
77700;DHT22;66867;42.658;23.320;2023-07-31T01:08:04;22.6;75
77700;DHT22;66867;42.658;23.320;2023-07-31T01:09:02;22.6;75
77700;DHT22;66867;42.658;23.320;2023-07-31T01:11:02;22.6;75
77700;DHT22;66867;42.658;23.320;2023-07-31T01:12:01;22.6;76
77700;DHT22;66867;42.658;23.320;2023-07-31T01:13:00;22.6;76
77700;DHT22;66867;42.658;23.320;2023-07-31T01:14:00;22.6;75
77700;DHT22;66867;42.658;23.320;2023-07-31T01:15:08;22.6;75
77700;DHT22;66867;42.658;23.320;2023-07-31T01:16:00;22.5;76
77700;DHT22;66867;42.658;23.320;2023-07-31T01:17:00;22.5;76
77700;DHT22;66867;42.658;23.320;2023-07-31T01:18:00;22.5;76
77700;DHT22;66867;42.658;23.320;2023-07-31T01:19:00;22.5;76
77700;DHT22;66867;42.658;23.320;2023-07-31T01:20:01;22.5;76
77700;DHT22;66867;42.658;23.320;2023-07-31T01:21:05;22.5;76
77700;DHT22;66867;42.658;23.320;2023-07-31T01:24:08;22.4;76
77700;DHT22;66867;42.658;23.320;2023-07-31T01:25:19;22.4;76
77700;DHT22;66867;42.658;23.320;2023-07-31T01:26:05;22.4;76
77700;DHT22;66867;42.658;23.320;2023-07-31T01:27:04;22.4;76
77700;DHT22;66867;42.658;23.320;2023-07-31T01:28:02;22.4;76
77700;DHT22;66867;42.658;23.320;2023-07-31T01:29:03;22.4;76
77700;DHT22;66867;42.658;23.320;2023-07-31T01:30:03;22.4;76
77700;DHT22;66867;42.658;23.320;2023-07-31T01:31:00;22.4;77
77700;DHT22;66867;42.658;23.320;2023-07-31T01:32:01;22.4;77
77700;DHT22;66867;42.658;23.320;2023-07-31T01:33:00;22.3;77
77700;DHT22;66867;42.658;23.320;2023-07-31T01:34:00;22.3;77
77700;DHT22;66867;42.658;23.320;2023-07-31T01:35:00;22.3;77
77700;DHT22;66867;42.658;23.320;2023-07-31T01:36:00;22.2;77
77700;DHT22;66867;42.658;23.320;2023-07-31T01:37:00;22.3;77
77700;DHT22;66867;42.658;23.320;2023-07-31T01:38:00;22.4;77
77700;DHT22;66867;42.658;23.320;2023-07-31T01:39:00;22.3;77
77700;DHT22;66867;42.658;23.320;2023-07-31T01:40:00;22.3;77
77700;DHT22;66867;42.658;23.320;2023-07-31T01:41:00;22.3;77
77700;DHT22;66867;42.658;23.320;2023-07-31T01:42:00;22.2;78
77700;DHT22;66867;42.658;23.320;2023-07-31T01:43:00;22.3;77
77700;DHT22;66867;42.658;23.320;2023-07-31T01:44:00;22.3;77
77700;DHT22;66867;42.658;23.320;2023-07-31T01:45:00;22.3;77
77700;DHT22;66867;42.658;23.320;2023-07-31T01:46:00;22.3;78
77700;DHT22;66867;42.658;23.320;2023-07-31T01:47:00;22.3;77
77700;DHT22;66867;42.658;23.320;2023-07-31T01:48:00;22.3;78
77700;DHT22;66867;42.658;23.320;2023-07-31T01:49:00;22.2;78
77700;DHT22;66867;42.658;23.320;2023-07-31T01:50:00;22.3;78
77700;DHT22;66867;42.658;23.320;2023-07-31T01:51:00;22.2;78
77700;DHT22;66867;42.658;23.320;2023-07-31T01:52:00;22.2;78
77700;DHT22;66867;42.658;23.320;2023-07-31T01:53:00;22.2;78
77700;DHT22;66867;42.658;23.320;2023-07-31T01:54:00;22.2;78
77700;DHT22;66867;42.658;23.320;2023-07-31T01:55:00;22.2;78
77700;DHT22;66867;42.658;23.320;2023-07-31T01:56:00;22.2;78
77700;DHT22;66867;42.658;23.320;2023-07-31T01:57:00;22.2;78
77700;DHT22;66867;42.658;23.320;2023-07-31T01:58:00;22.1;78
77700;DHT22;66867;42.658;23.320;2023-07-31T01:59:00;22.1;78
77700;DHT22;66867;42.658;23.320;2023-07-31T02:00:00;22.1;79
77700;DHT22;66867;42.658;23.320;2023-07-31T02:01:00;22.1;79
77700;DHT22;66867;42.658;23.320;2023-07-31T02:02:00;22.2;78
77700;DHT22;66867;42.658;23.320;2023-07-31T02:03:00;22.1;78
77700;DHT22;66867;42.658;23.320;2023-07-31T02:04:00;22.2;78
77700;DHT22;66867;42.658;23.320;2023-07-31T02:05:00;22.1;78
77700;DHT22;66867;42.658;23.320;2023-07-31T02:06:00;22.2;78
77700;DHT22;66867;42.658;23.320;2023-07-31T02:07:00;22.2;78
77700;DHT22;66867;42.658;23.320;2023-07-31T02:08:00;22.2;78
77700;DHT22;66867;42.658;23.320;2023-07-31T02:09:00;22.2;78
77700;DHT22;66867;42.658;23.320;2023-07-31T02:10:00;22.1;78
77700;DHT22;66867;42.658;23.320;2023-07-31T02:11:00;22.1;78
77700;DHT22;66867;42.658;23.320;2023-07-31T02:12:00;22.1;78
77700;DHT22;66867;42.658;23.320;2023-07-31T02:13:00;22.1;79
77700;DHT22;66867;42.658;23.320;2023-07-31T02:14:00;22.1;79
77700;DHT22;66867;42.658;23.320;2023-07-31T02:15:00;22.1;79
77700;DHT22;66867;42.658;23.320;2023-07-31T02:16:00;22.1;79
77700;DHT22;66867;42.658;23.320;2023-07-31T02:17:00;22.2;79
77700;DHT22;66867;42.658;23.320;2023-07-31T02:18:00;22.1;79
77700;DHT22;66867;42.658;23.320;2023-07-31T02:19:00;22.1;79
77700;DHT22;66867;42.658;23.320;2023-07-31T02:20:00;22.1;79
77700;DHT22;66867;42.658;23.320;2023-07-31T02:21:00;22.1;79
77700;DHT22;66867;42.658;23.320;2023-07-31T02:22:00;22.2;79
77700;DHT22;66867;42.658;23.320;2023-07-31T02:23:00;22.2;79
77700;DHT22;66867;42.658;23.320;2023-07-31T02:24:00;22.2;79
77700;DHT22;66867;42.658;23.320;2023-07-31T02:25:00;22.2;79
77700;DHT22;66867;42.658;23.320;2023-07-31T02:26:00;22.2;79
77700;DHT22;66867;42.658;23.320;2023-07-31T02:27:00;22.2;79
77700;DHT22;66867;42.658;23.320;2023-07-31T02:28:00;22.2;79
77700;DHT22;66867;42.658;23.320;2023-07-31T02:29:00;22.2;79
77700;DHT22;66867;42.658;23.320;2023-07-31T02:30:00;22.3;79
77700;DHT22;66867;42.658;23.320;2023-07-31T02:31:00;22.2;79
77700;DHT22;66867;42.658;23.320;2023-07-31T02:32:00;22.2;79
77700;DHT22;66867;42.658;23.320;2023-07-31T02:33:00;22.2;79
77700;DHT22;66867;42.658;23.320;2023-07-31T02:34:00;22.2;79
77700;DHT22;66867;42.658;23.320;2023-07-31T02:35:00;22.2;79
77700;DHT22;66867;42.658;23.320;2023-07-31T02:36:00;22.1;79
77700;DHT22;66867;42.658;23.320;2023-07-31T02:37:00;22.1;79
77700;DHT22;66867;42.658;23.320;2023-07-31T02:38:00;22.1;79
77700;DHT22;66867;42.658;23.320;2023-07-31T02:39:00;22.1;79
77700;DHT22;66867;42.658;23.320;2023-07-31T02:40:00;22.2;79
77700;DHT22;66867;42.658;23.320;2023-07-31T02:41:00;22.1;79
77700;DHT22;66867;42.658;23.320;2023-07-31T02:42:00;22.1;79
77700;DHT22;66867;42.658;23.320;2023-07-31T02:43:00;22.1;79
77700;DHT22;66867;42.658;23.320;2023-07-31T02:44:00;22.1;79
77700;DHT22;66867;42.658;23.320;2023-07-31T02:45:00;22.1;79
77700;DHT22;66867;42.658;23.320;2023-07-31T02:46:00;22.1;79
77700;DHT22;66867;42.658;23.320;2023-07-31T02:47:00;22.2;79
77700;DHT22;66867;42.658;23.320;2023-07-31T02:48:00;22.2;79
77700;DHT22;66867;42.658;23.320;2023-07-31T02:49:00;22.2;79
77700;DHT22;66867;42.658;23.320;2023-07-31T02:50:01;22.1;79
77700;DHT22;66867;42.658;23.320;2023-07-31T02:51:00;22.2;78
77700;DHT22;66867;42.658;23.320;2023-07-31T02:52:00;22.2;78
77700;DHT22;66867;42.658;23.320;2023-07-31T02:53:00;22.2;78
77700;DHT22;66867;42.658;23.320;2023-07-31T02:54:00;22.2;78
77700;DHT22;66867;42.658;23.320;2023-07-31T02:55:00;22.1;78
77700;DHT22;66867;42.658;23.320;2023-07-31T02:56:00;22.1;79
77700;DHT22;66867;42.658;23.320;2023-07-31T02:57:00;22.1;79
77700;DHT22;66867;42.658;23.320;2023-07-31T02:58:00;22.1;79
77700;DHT22;66867;42.658;23.320;2023-07-31T02:59:00;22.1;79
77700;DHT22;66867;42.658;23.320;2023-07-31T03:00:00;22.1;79
77700;DHT22;66867;42.658;23.320;2023-07-31T03:01:00;22.1;79
77700;DHT22;66867;42.658;23.320;2023-07-31T03:02:00;22.0;79
77700;DHT22;66867;42.658;23.320;2023-07-31T03:03:00;22.1;79
77700;DHT22;66867;42.658;23.320;2023-07-31T03:04:00;22.1;79
77700;DHT22;66867;42.658;23.320;2023-07-31T03:05:00;22.0;79
77700;DHT22;66867;42.658;23.320;2023-07-31T03:06:00;22.0;79
77700;DHT22;66867;42.658;23.320;2023-07-31T03:07:00;22.0;79
77700;DHT22;66867;42.658;23.320;2023-07-31T03:08:00;22.0;79
77700;DHT22;66867;42.658;23.320;2023-07-31T03:09:00;22.0;79
77700;DHT22;66867;42.658;23.320;2023-07-31T03:10:00;22.1;79
77700;DHT22;66867;42.658;23.320;2023-07-31T03:11:00;22.1;79
77700;DHT22;66867;42.658;23.320;2023-07-31T03:12:00;22.1;79
77700;DHT22;66867;42.658;23.320;2023-07-31T03:13:00;22.0;79
77700;DHT22;66867;42.658;23.320;2023-07-31T03:14:00;22.0;79
77700;DHT22;66867;42.658;23.320;2023-07-31T03:15:00;22.0;79
77700;DHT22;66867;42.658;23.320;2023-07-31T03:16:00;22.0;80
77700;DHT22;66867;42.658;23.320;2023-07-31T03:17:00;22.0;79
77700;DHT22;66867;42.658;23.320;2023-07-31T03:18:00;22.0;79
77700;DHT22;66867;42.658;23.320;2023-07-31T03:19:00;22.1;79
77700;DHT22;66867;42.658;23.320;2023-07-31T03:20:00;22.1;79
77700;DHT22;66867;42.658;23.320;2023-07-31T03:21:00;22.1;79
77700;DHT22;66867;42.658;23.320;2023-07-31T03:22:00;22.2;79
77700;DHT22;66867;42.658;23.320;2023-07-31T03:23:00;22.2;79
77700;DHT22;66867;42.658;23.320;2023-07-31T03:24:00;22.2;79
77700;DHT22;66867;42.658;23.320;2023-07-31T03:25:01;22.2;79
77700;DHT22;66867;42.658;23.320;2023-07-31T03:26:01;22.2;79
77700;DHT22;66867;42.658;23.320;2023-07-31T03:27:00;22.2;79
77700;DHT22;66867;42.658;23.320;2023-07-31T03:28:00;22.2;79
77700;DHT22;66867;42.658;23.320;2023-07-31T03:29:00;22.2;79
77700;DHT22;66867;42.658;23.320;2023-07-31T03:30:00;22.3;79
77700;DHT22;66867;42.658;23.320;2023-07-31T03:31:00;22.2;78
77700;DHT22;66867;42.658;23.320;2023-07-31T03:32:00;22.2;78
77700;DHT22;66867;42.658;23.320;2023-07-31T03:33:00;22.2;79
77700;DHT22;66867;42.658;23.320;2023-07-31T03:34:00;22.2;79
77700;DHT22;66867;42.658;23.320;2023-07-31T03:35:00;22.2;79
77700;DHT22;66867;42.658;23.320;2023-07-31T03:36:00;22.3;78
77700;DHT22;66867;42.658;23.320;2023-07-31T03:37:00;22.3;78
77700;DHT22;66867;42.658;23.320;2023-07-31T03:38:00;22.3;78
77700;DHT22;66867;42.658;23.320;2023-07-31T03:39:00;22.3;78
77700;DHT22;66867;42.658;23.320;2023-07-31T03:40:00;22.3;78
77700;DHT22;66867;42.658;23.320;2023-07-31T03:41:00;22.3;78
77700;DHT22;66867;42.658;23.320;2023-07-31T03:42:00;22.3;78
77700;DHT22;66867;42.658;23.320;2023-07-31T03:43:00;22.3;78
77700;DHT22;66867;42.658;23.320;2023-07-31T03:44:00;22.3;78
77700;DHT22;66867;42.658;23.320;2023-07-31T03:45:00;22.3;78
77700;DHT22;66867;42.658;23.320;2023-07-31T03:46:00;22.3;78
77700;DHT22;66867;42.658;23.320;2023-07-31T03:47:00;22.3;78
77700;DHT22;66867;42.658;23.320;2023-07-31T03:48:00;22.3;78
77700;DHT22;66867;42.658;23.320;2023-07-31T03:49:00;22.2;78
77700;DHT22;66867;42.658;23.320;2023-07-31T03:50:00;22.2;78
77700;DHT22;66867;42.658;23.320;2023-07-31T03:51:00;22.2;78
77700;DHT22;66867;42.658;23.320;2023-07-31T03:52:00;22.1;78
77700;DHT22;66867;42.658;23.320;2023-07-31T03:53:00;22.2;78
77700;DHT22;66867;42.658;23.320;2023-07-31T03:54:00;22.2;78
77700;DHT22;66867;42.658;23.320;2023-07-31T03:55:00;22.2;78
77700;DHT22;66867;42.658;23.320;2023-07-31T03:56:00;22.2;78
77700;DHT22;66867;42.658;23.320;2023-07-31T03:57:00;22.2;78
77700;DHT22;66867;42.658;23.320;2023-07-31T03:58:00;22.2;78
77700;DHT22;66867;42.658;23.320;2023-07-31T03:59:00;22.2;78
77700;DHT22;66867;42.658;23.320;2023-07-31T04:00:00;22.2;78
77700;DHT22;66867;42.658;23.320;2023-07-31T04:01:00;22.2;78
77700;DHT22;66867;42.658;23.320;2023-07-31T04:02:00;22.2;79
77700;DHT22;66867;42.658;23.320;2023-07-31T04:03:00;22.2;78
77700;DHT22;66867;42.658;23.320;2023-07-31T04:04:00;22.1;78
77700;DHT22;66867;42.658;23.320;2023-07-31T04:05:00;22.1;79
77700;DHT22;66867;42.658;23.320;2023-07-31T04:06:00;22.1;79
77700;DHT22;66867;42.658;23.320;2023-07-31T04:07:00;22.1;79
77700;DHT22;66867;42.658;23.320;2023-07-31T04:08:00;22.1;79
77700;DHT22;66867;42.658;23.320;2023-07-31T04:09:00;22.2;79
77700;DHT22;66867;42.658;23.320;2023-07-31T04:10:00;22.2;79
77700;DHT22;66867;42.658;23.320;2023-07-31T04:11:00;22.2;79
77700;DHT22;66867;42.658;23.320;2023-07-31T04:12:00;22.3;78
77700;DHT22;66867;42.658;23.320;2023-07-31T04:13:00;22.3;79
77700;DHT22;66867;42.658;23.320;2023-07-31T04:14:00;22.3;78
77700;DHT22;66867;42.658;23.320;2023-07-31T04:15:00;22.3;78
77700;DHT22;66867;42.658;23.320;2023-07-31T04:16:00;22.3;78
77700;DHT22;66867;42.658;23.320;2023-07-31T04:17:00;22.3;78
77700;DHT22;66867;42.658;23.320;2023-07-31T04:18:00;22.3;78
77700;DHT22;66867;42.658;23.320;2023-07-31T04:19:00;22.3;78
77700;DHT22;66867;42.658;23.320;2023-07-31T04:20:00;22.3;78
77700;DHT22;66867;42.658;23.320;2023-07-31T04:21:00;22.4;78
77700;DHT22;66867;42.658;23.320;2023-07-31T04:22:00;22.3;78
77700;DHT22;66867;42.658;23.320;2023-07-31T04:23:00;22.3;78
77700;DHT22;66867;42.658;23.320;2023-07-31T04:24:00;22.3;78
77700;DHT22;66867;42.658;23.320;2023-07-31T04:25:00;22.3;78
77700;DHT22;66867;42.658;23.320;2023-07-31T04:26:00;22.3;78
77700;DHT22;66867;42.658;23.320;2023-07-31T04:27:00;22.3;78
77700;DHT22;66867;42.658;23.320;2023-07-31T04:28:00;22.3;78
77700;DHT22;66867;42.658;23.320;2023-07-31T04:29:00;22.3;78
77700;DHT22;66867;42.658;23.320;2023-07-31T04:30:00;22.3;78
77700;DHT22;66867;42.658;23.320;2023-07-31T04:31:00;22.3;78
77700;DHT22;66867;42.658;23.320;2023-07-31T04:32:00;22.4;78
77700;DHT22;66867;42.658;23.320;2023-07-31T04:33:00;22.4;77
77700;DHT22;66867;42.658;23.320;2023-07-31T04:34:00;22.4;77
77700;DHT22;66867;42.658;23.320;2023-07-31T04:35:00;22.3;77
77700;DHT22;66867;42.658;23.320;2023-07-31T04:36:00;22.3;78
77700;DHT22;66867;42.658;23.320;2023-07-31T04:37:00;22.3;78
77700;DHT22;66867;42.658;23.320;2023-07-31T04:38:00;22.3;78
77700;DHT22;66867;42.658;23.320;2023-07-31T04:39:00;22.3;78
77700;DHT22;66867;42.658;23.320;2023-07-31T04:40:00;22.3;77
77700;DHT22;66867;42.658;23.320;2023-07-31T04:41:00;22.4;77
77700;DHT22;66867;42.658;23.320;2023-07-31T04:42:00;22.4;77
77700;DHT22;66867;42.658;23.320;2023-07-31T04:43:00;22.4;77
77700;DHT22;66867;42.658;23.320;2023-07-31T04:44:00;22.4;77
77700;DHT22;66867;42.658;23.320;2023-07-31T04:45:00;22.5;77
77700;DHT22;66867;42.658;23.320;2023-07-31T04:46:00;22.5;77
77700;DHT22;66867;42.658;23.320;2023-07-31T04:47:00;22.4;76
77700;DHT22;66867;42.658;23.320;2023-07-31T04:48:00;22.4;77
77700;DHT22;66867;42.658;23.320;2023-07-31T04:49:00;22.5;77
77700;DHT22;66867;42.658;23.320;2023-07-31T04:50:00;22.5;76
77700;DHT22;66867;42.658;23.320;2023-07-31T04:51:00;22.5;76
77700;DHT22;66867;42.658;23.320;2023-07-31T04:52:00;22.5;77
77700;DHT22;66867;42.658;23.320;2023-07-31T04:53:00;22.5;77
77700;DHT22;66867;42.658;23.320;2023-07-31T04:54:00;22.4;77
77700;DHT22;66867;42.658;23.320;2023-07-31T04:55:00;22.4;77
77700;DHT22;66867;42.658;23.320;2023-07-31T04:56:00;22.5;78
77700;DHT22;66867;42.658;23.320;2023-07-31T04:57:00;22.5;77
77700;DHT22;66867;42.658;23.320;2023-07-31T04:58:00;22.5;77
77700;DHT22;66867;42.658;23.320;2023-07-31T04:59:00;22.5;77
77700;DHT22;66867;42.658;23.320;2023-07-31T05:00:00;22.5;77
77700;DHT22;66867;42.658;23.320;2023-07-31T05:01:00;22.5;77
77700;DHT22;66867;42.658;23.320;2023-07-31T05:02:00;22.5;77
77700;DHT22;66867;42.658;23.320;2023-07-31T05:03:00;22.5;77
77700;DHT22;66867;42.658;23.320;2023-07-31T05:04:00;22.6;77
77700;DHT22;66867;42.658;23.320;2023-07-31T05:05:00;22.6;77
77700;DHT22;66867;42.658;23.320;2023-07-31T05:06:00;22.6;77
77700;DHT22;66867;42.658;23.320;2023-07-31T05:07:00;22.6;77
77700;DHT22;66867;42.658;23.320;2023-07-31T05:08:00;22.6;77
77700;DHT22;66867;42.658;23.320;2023-07-31T05:09:00;22.6;77
77700;DHT22;66867;42.658;23.320;2023-07-31T05:10:00;22.7;77
77700;DHT22;66867;42.658;23.320;2023-07-31T05:11:00;22.7;77
77700;DHT22;66867;42.658;23.320;2023-07-31T05:12:00;22.7;77
77700;DHT22;66867;42.658;23.320;2023-07-31T05:13:00;22.6;78
77700;DHT22;66867;42.658;23.320;2023-07-31T05:14:00;22.7;77
77700;DHT22;66867;42.658;23.320;2023-07-31T05:15:00;22.8;77
77700;DHT22;66867;42.658;23.320;2023-07-31T05:16:00;22.8;77
77700;DHT22;66867;42.658;23.320;2023-07-31T05:17:00;22.9;77
77700;DHT22;66867;42.658;23.320;2023-07-31T05:18:00;22.9;77
77700;DHT22;66867;42.658;23.320;2023-07-31T05:19:00;23.0;77
77700;DHT22;66867;42.658;23.320;2023-07-31T05:20:00;23.0;76
77700;DHT22;66867;42.658;23.320;2023-07-31T05:21:00;23.0;77
77700;DHT22;66867;42.658;23.320;2023-07-31T05:22:00;23.0;76
77700;DHT22;66867;42.658;23.320;2023-07-31T05:23:00;23.1;76
77700;DHT22;66867;42.658;23.320;2023-07-31T05:24:00;23.1;76
77700;DHT22;66867;42.658;23.320;2023-07-31T05:25:00;23.2;76
77700;DHT22;66867;42.658;23.320;2023-07-31T05:26:07;23.2;76
77700;DHT22;66867;42.658;23.320;2023-07-31T05:27:00;23.2;76
77700;DHT22;66867;42.658;23.320;2023-07-31T05:28:00;23.2;75
77700;DHT22;66867;42.658;23.320;2023-07-31T05:29:00;23.2;76
77700;DHT22;66867;42.658;23.320;2023-07-31T05:30:00;23.2;76
77700;DHT22;66867;42.658;23.320;2023-07-31T05:31:00;23.3;76
77700;DHT22;66867;42.658;23.320;2023-07-31T05:32:00;23.3;76
77700;DHT22;66867;42.658;23.320;2023-07-31T05:33:00;23.3;76
77700;DHT22;66867;42.658;23.320;2023-07-31T05:34:00;23.3;75
77700;DHT22;66867;42.658;23.320;2023-07-31T05:35:00;23.4;75
77700;DHT22;66867;42.658;23.320;2023-07-31T05:36:00;23.4;75
77700;DHT22;66867;42.658;23.320;2023-07-31T05:37:00;23.3;75
77700;DHT22;66867;42.658;23.320;2023-07-31T05:38:00;23.4;75
77700;DHT22;66867;42.658;23.320;2023-07-31T05:39:00;23.4;75
77700;DHT22;66867;42.658;23.320;2023-07-31T05:40:00;23.4;74
77700;DHT22;66867;42.658;23.320;2023-07-31T05:41:00;23.5;75
77700;DHT22;66867;42.658;23.320;2023-07-31T05:42:00;23.5;75
77700;DHT22;66867;42.658;23.320;2023-07-31T05:43:00;23.5;75
77700;DHT22;66867;42.658;23.320;2023-07-31T05:44:00;23.6;74
77700;DHT22;66867;42.658;23.320;2023-07-31T05:45:00;23.5;75
77700;DHT22;66867;42.658;23.320;2023-07-31T05:46:00;23.6;74
77700;DHT22;66867;42.658;23.320;2023-07-31T05:47:00;23.7;74
77700;DHT22;66867;42.658;23.320;2023-07-31T05:48:00;23.7;74
77700;DHT22;66867;42.658;23.320;2023-07-31T05:49:00;23.7;73
77700;DHT22;66867;42.658;23.320;2023-07-31T05:50:00;23.8;72
77700;DHT22;66867;42.658;23.320;2023-07-31T05:51:00;23.8;72
77700;DHT22;66867;42.658;23.320;2023-07-31T05:52:00;23.8;72
77700;DHT22;66867;42.658;23.320;2023-07-31T05:53:00;23.8;71
77700;DHT22;66867;42.658;23.320;2023-07-31T05:54:00;23.8;71
77700;DHT22;66867;42.658;23.320;2023-07-31T05:55:00;23.8;71
77700;DHT22;66867;42.658;23.320;2023-07-31T05:56:00;23.8;70
77700;DHT22;66867;42.658;23.320;2023-07-31T05:57:00;23.7;69
77700;DHT22;66867;42.658;23.320;2023-07-31T05:58:00;23.7;69
77700;DHT22;66867;42.658;23.320;2023-07-31T05:59:00;23.6;69
77700;DHT22;66867;42.658;23.320;2023-07-31T06:00:00;23.5;69
77700;DHT22;66867;42.658;23.320;2023-07-31T06:01:00;23.5;69
77700;DHT22;66867;42.658;23.320;2023-07-31T06:02:00;23.5;69
77700;DHT22;66867;42.658;23.320;2023-07-31T06:03:00;23.4;70
77700;DHT22;66867;42.658;23.320;2023-07-31T06:04:00;23.4;71
77700;DHT22;66867;42.658;23.320;2023-07-31T06:05:00;23.5;69
77700;DHT22;66867;42.658;23.320;2023-07-31T06:06:00;23.5;70
77700;DHT22;66867;42.658;23.320;2023-07-31T06:07:00;23.5;70
77700;DHT22;66867;42.658;23.320;2023-07-31T06:08:00;23.5;70
77700;DHT22;66867;42.658;23.320;2023-07-31T06:09:00;23.6;71
77700;DHT22;66867;42.658;23.320;2023-07-31T06:10:00;23.6;70
77700;DHT22;66867;42.658;23.320;2023-07-31T06:11:00;23.6;70
77700;DHT22;66867;42.658;23.320;2023-07-31T06:12:00;23.6;70
77700;DHT22;66867;42.658;23.320;2023-07-31T06:13:00;23.8;70
77700;DHT22;66867;42.658;23.320;2023-07-31T06:14:00;23.8;70
77700;DHT22;66867;42.658;23.320;2023-07-31T06:15:00;23.8;70
77700;DHT22;66867;42.658;23.320;2023-07-31T06:16:00;23.8;70
77700;DHT22;66867;42.658;23.320;2023-07-31T06:17:00;23.9;69
77700;DHT22;66867;42.658;23.320;2023-07-31T06:18:00;23.9;68
77700;DHT22;66867;42.658;23.320;2023-07-31T06:19:00;24.0;68
77700;DHT22;66867;42.658;23.320;2023-07-31T06:20:00;24.0;67
77700;DHT22;66867;42.658;23.320;2023-07-31T06:21:00;24.0;68
77700;DHT22;66867;42.658;23.320;2023-07-31T06:22:00;24.1;67
77700;DHT22;66867;42.658;23.320;2023-07-31T06:23:00;24.1;67
77700;DHT22;66867;42.658;23.320;2023-07-31T06:24:00;24.2;67
77700;DHT22;66867;42.658;23.320;2023-07-31T06:25:00;24.3;66
77700;DHT22;66867;42.658;23.320;2023-07-31T06:26:00;24.2;66
77700;DHT22;66867;42.658;23.320;2023-07-31T06:27:00;24.3;65
77700;DHT22;66867;42.658;23.320;2023-07-31T06:28:00;24.4;66
77700;DHT22;66867;42.658;23.320;2023-07-31T06:29:00;24.4;65
77700;DHT22;66867;42.658;23.320;2023-07-31T06:30:00;24.4;65
77700;DHT22;66867;42.658;23.320;2023-07-31T06:31:00;24.4;65
77700;DHT22;66867;42.658;23.320;2023-07-31T06:32:00;24.3;65
77700;DHT22;66867;42.658;23.320;2023-07-31T06:33:00;24.3;64
77700;DHT22;66867;42.658;23.320;2023-07-31T06:34:00;24.3;64
77700;DHT22;66867;42.658;23.320;2023-07-31T06:35:00;24.2;65
77700;DHT22;66867;42.658;23.320;2023-07-31T06:36:00;24.3;65
77700;DHT22;66867;42.658;23.320;2023-07-31T06:37:00;24.3;65
77700;DHT22;66867;42.658;23.320;2023-07-31T06:38:00;24.3;65
77700;DHT22;66867;42.658;23.320;2023-07-31T06:39:00;24.2;66
77700;DHT22;66867;42.658;23.320;2023-07-31T06:40:00;24.2;65